Time;durP1;ratioP1;P1;durP2;ratioP2;P2;SDS_P1;SDS_P2;PMS_P1;PMS_P2;Temp;Humidity;BMP_temperature;BMP_pressure;BME280_temperature;BME280_humidity;BME280_pressure;Samples;Min_cycle;Max_cycle;Signal;HPM_P1;HPM_P2
2023/07/26 00:00:59;;;;;;;1999.90;999.90;;;16.90;99.90;;;;;;5033283;28;20018;-69
2023/07/26 00:03:24;;;;;;;1999.90;999.90;;;16.80;99.90;;;;;;5032980;28;20026;-70
2023/07/26 00:05:50;;;;;;;1999.90;999.90;;;16.80;99.90;;;;;;5033200;28;20025;-69
2023/07/26 00:08:16;;;;;;;1999.90;999.90;;;16.70;99.90;;;;;;5033021;28;20037;-76
2023/07/26 00:10:48;;;;;;;1999.90;999.90;;;16.70;99.90;;;;;;5015158;28;20051;-69
2023/07/26 00:13:16;;;;;;;1999.90;999.90;;;16.70;99.90;;;;;;5032943;28;20084;-69
2023/07/26 00:15:41;;;;;;;1999.90;999.90;;;16.70;99.90;;;;;;5033223;28;20101;-69
2023/07/26 00:18:07;;;;;;;1999.90;999.90;;;16.70;99.90;;;;;;5032495;28;20113;-69
2023/07/26 00:20:33;;;;;;;1999.90;999.90;;;16.70;99.90;;;;;;5032390;28;20057;-69
2023/07/26 00:22:59;;;;;;;1999.90;999.90;;;16.70;99.90;;;;;;5032590;28;20112;-76
2023/07/26 00:25:25;;;;;;;1999.90;999.90;;;16.60;99.90;;;;;;5032895;28;20029;-69
2023/07/26 00:27:50;;;;;;;1999.90;999.90;;;16.60;99.90;;;;;;5032677;28;20029;-70
2023/07/26 00:30:16;;;;;;;1999.90;999.90;;;16.60;99.90;;;;;;5033037;28;20032;-69
2023/07/26 00:32:41;;;;;;;1999.90;999.90;;;16.60;99.90;;;;;;5032999;28;20026;-69
2023/07/26 00:35:07;;;;;;;1999.90;999.90;;;16.50;99.90;;;;;;5032242;28;20022;-76
2023/07/26 00:37:33;;;;;;;1999.90;999.90;;;16.60;99.90;;;;;;5032064;28;20049;-69
2023/07/26 00:39:58;;;;;;;1999.90;999.90;;;16.50;99.90;;;;;;5032045;28;20404;-69
2023/07/26 00:42:24;;;;;;;1999.90;999.90;;;16.50;99.90;;;;;;5032767;28;20047;-69
2023/07/26 00:44:50;;;;;;;1999.90;999.90;;;16.50;99.90;;;;;;5014965;28;20029;-70
2023/07/26 00:47:16;;;;;;;1999.90;999.90;;;16.50;99.90;;;;;;5032567;28;20044;-69
2023/07/26 00:49:43;;;;;;;1999.90;999.90;;;16.30;99.90;;;;;;5032489;28;20029;-76
2023/07/26 00:52:11;;;;;;;1999.90;999.90;;;16.20;99.90;;;;;;5032272;28;20480;-69
2023/07/26 00:54:37;;;;;;;1999.90;999.90;;;16.20;99.90;;;;;;5032597;28;20093;-69
2023/07/26 00:57:03;;;;;;;1999.90;999.90;;;16.20;99.90;;;;;;5031626;28;20105;-69
2023/07/26 00:59:28;;;;;;;1999.90;999.90;;;16.30;99.90;;;;;;5032462;28;20419;-69
2023/07/26 01:01:54;;;;;;;1999.90;999.90;;;16.30;99.90;;;;;;5015098;28;20417;-69
2023/07/26 01:04:20;;;;;;;1999.90;999.90;;;16.40;99.90;;;;;;5032395;28;20107;-69
2023/07/26 01:07:10;;;;;;;1999.90;999.90;;;16.40;99.90;;;;;;5032529;28;20030;-69
2023/07/26 01:09:43;;;;;;;1999.90;999.90;;;16.40;99.90;;;;;;5032346;28;20101;-70
2023/07/26 01:12:22;;;;;;;1999.90;999.90;;;16.40;99.90;;;;;;5014591;28;20036;-76
2023/07/26 01:14:56;;;;;;;1999.90;999.90;;;16.50;99.90;;;;;;5032352;28;20071;-76
2023/07/26 01:17:22;;;;;;;1999.90;999.90;;;16.50;99.90;;;;;;5032290;28;20029;-69
2023/07/26 01:19:48;;;;;;;1999.90;999.90;;;16.50;99.90;;;;;;5032437;28;20490;-70
2023/07/26 01:22:13;;;;;;;1999.90;999.90;;;16.60;99.90;;;;;;5032249;28;20033;-70
2023/07/26 01:24:39;;;;;;;1999.90;999.90;;;16.60;99.90;;;;;;5032390;28;20100;-69
2023/07/26 01:27:05;;;;;;;1999.90;999.90;;;16.60;99.90;;;;;;5032246;28;20025;-76
2023/07/26 01:29:31;;;;;;;1999.90;999.90;;;16.60;99.90;;;;;;5032064;28;20021;-70
2023/07/26 01:31:56;;;;;;;1999.90;999.90;;;16.60;99.90;;;;;;5032569;28;20511;-69
2023/07/26 01:34:22;;;;;;;1999.90;999.90;;;16.60;99.90;;;;;;5032143;28;20022;-69
2023/07/26 01:36:49;;;;;;;1999.90;999.90;;;16.60;99.90;;;;;;5032161;28;20026;-69
2023/07/26 01:39:16;;;;;;;1999.90;999.90;;;16.50;99.90;;;;;;5032156;28;20091;-76
2023/07/26 01:41:42;;;;;;;1999.90;999.90;;;16.50;99.90;;;;;;5032930;28;20113;-76
2023/07/26 01:44:08;;;;;;;1999.90;999.90;;;16.40;99.90;;;;;;5031940;28;20042;-70
2023/07/26 01:46:34;;;;;;;1999.90;999.90;;;16.30;99.90;;;;;;5032089;28;20559;-69
2023/07/26 01:48:59;;;;;;;1999.90;999.90;;;16.20;99.90;;;;;;5034570;28;20021;-70
2023/07/26 01:51:25;;;;;;;1999.90;999.90;;;16.10;99.90;;;;;;5035881;28;20091;-69
2023/07/26 01:53:51;;;;;;;1999.90;999.90;;;16.00;99.90;;;;;;5034919;28;20060;-76
2023/07/26 01:56:16;;;;;;;1999.90;999.90;;;15.90;99.90;;;;;;5013865;28;20018;-69
2023/07/26 01:58:42;;;;;;;1999.90;999.90;;;15.90;99.90;;;;;;5015655;28;20018;-69
2023/07/26 02:01:07;;;;;;;1999.90;999.90;;;15.90;99.90;;;;;;4997979;28;20021;-69
2023/07/26 02:03:33;;;;;;;1999.90;999.90;;;15.90;99.90;;;;;;5015907;28;20096;-69
2023/07/26 02:05:59;;;;;;;1999.90;999.90;;;15.90;99.90;;;;;;5014232;28;20029;-76
2023/07/26 02:08:24;;;;;;;1999.90;999.90;;;15.90;99.90;;;;;;5015406;28;20026;-69
2023/07/26 02:10:50;;;;;;;1999.90;999.90;;;15.90;99.90;;;;;;5028577;28;20056;-69
2023/07/26 02:13:15;;;;;;;1999.90;999.90;;;15.90;99.90;;;;;;5035234;28;20037;-70
2023/07/26 02:15:41;;;;;;;1999.90;999.90;;;15.90;99.90;;;;;;5035010;28;20021;-69
2023/07/26 02:18:07;;;;;;;1999.90;999.90;;;15.90;99.90;;;;;;5017184;28;20116;-75
2023/07/26 02:20:33;;;;;;;1999.90;999.90;;;15.90;99.90;;;;;;5035151;28;20502;-70
2023/07/26 02:22:58;;;;;;;1999.90;999.90;;;15.80;99.90;;;;;;5034863;28;20025;-69
2023/07/26 02:25:24;;;;;;;1999.90;999.90;;;15.80;99.90;;;;;;5034782;28;20032;-69
2023/07/26 02:27:50;;;;;;;1999.90;999.90;;;15.70;99.90;;;;;;5034968;28;20022;-70
2023/07/26 02:30:16;;;;;;;1999.90;999.90;;;15.70;99.90;;;;;;5017371;28;20415;-76
2023/07/26 02:32:42;;;;;;;1999.90;999.90;;;15.70;99.90;;;;;;5034988;28;20120;-77
2023/07/26 02:35:08;;;;;;;1999.90;999.90;;;15.60;99.90;;;;;;5034823;28;20029;-69
2023/07/26 02:37:34;;;;;;;1999.90;999.90;;;15.60;99.90;;;;;;5034213;28;20045;-69
2023/07/26 02:39:59;;;;;;;1999.90;999.90;;;15.60;99.90;;;;;;5034034;28;20061;-69
2023/07/26 02:42:26;;;;;;;1999.90;999.90;;;15.60;99.90;;;;;;5034602;28;20115;-69
2023/07/26 02:44:53;;;;;;;1999.90;999.90;;;15.70;99.90;;;;;;5016832;28;20025;-69
2023/07/26 02:47:19;;;;;;;1999.90;999.90;;;15.70;99.90;;;;;;5034464;28;20025;-70
2023/07/26 02:49:45;;;;;;;1999.90;999.90;;;15.70;99.90;;;;;;5034311;28;20112;-69
2023/07/26 02:52:10;;;;;;;1999.90;999.90;;;15.70;99.90;;;;;;5034293;28;20120;-69
2023/07/26 02:54:36;;;;;;;1999.90;999.90;;;15.70;99.90;;;;;;5034491;28;20534;-69
2023/07/26 02:57:01;;;;;;;1999.90;999.90;;;15.80;99.90;;;;;;5034240;28;20025;-75
2023/07/26 02:59:27;;;;;;;1999.90;999.90;;;15.80;99.90;;;;;;5033997;28;20032;-76
2023/07/26 03:01:53;;;;;;;1999.90;999.90;;;15.80;99.90;;;;;;5016542;28;20017;-69
2023/07/26 03:04:18;;;;;;;1999.90;999.90;;;15.80;99.90;;;;;;5016434;28;20025;-69
2023/07/26 03:06:44;;;;;;;1999.90;999.90;;;15.80;99.90;;;;;;5033932;28;20391;-69
2023/07/26 03:09:09;;;;;;;1999.90;999.90;;;15.90;99.90;;;;;;5033858;28;20032;-69
2023/07/26 03:11:36;;;;;;;1999.90;999.90;;;15.80;99.90;;;;;;5034053;28;20028;-76
2023/07/26 03:14:01;;;;;;;1999.90;999.90;;;15.90;99.90;;;;;;5034211;28;20032;-69
2023/07/26 03:16:27;;;;;;;1999.90;999.90;;;15.80;99.90;;;;;;5033990;28;20101;-69
2023/07/26 03:18:53;;;;;;;1999.90;999.90;;;15.80;99.90;;;;;;5034146;28;20029;-69
2023/07/26 03:21:18;;;;;;;1999.90;999.90;;;15.80;99.90;;;;;;5033030;28;20022;-69
2023/07/26 03:23:44;;;;;;;1999.90;999.90;;;15.80;99.90;;;;;;5050188;28;20087;-76
2023/07/26 03:26:09;;;;;;;1999.90;999.90;;;15.80;99.90;;;;;;5036736;28;20496;-69
2023/07/26 03:28:35;;;;;;;1999.90;999.90;;;15.80;99.90;;;;;;5033829;28;20061;-69
2023/07/26 03:31:01;;;;;;;1999.90;999.90;;;15.70;99.90;;;;;;5033641;28;20036;-69
2023/07/26 03:33:26;;;;;;;1999.90;999.90;;;15.70;99.90;;;;;;5034726;28;20024;-69
2023/07/26 03:35:52;;;;;;;1999.90;999.90;;;15.70;99.90;;;;;;5035599;28;20021;-76
2023/07/26 03:38:18;;;;;;;1999.90;999.90;;;15.60;99.90;;;;;;5045177;28;20033;-69
2023/07/26 03:40:44;;;;;;;1999.90;999.90;;;15.60;99.90;;;;;;5033401;28;20029;-70
2023/07/26 03:43:10;;;;;;;1999.90;999.90;;;15.60;99.90;;;;;;5033433;28;20053;-70
2023/07/26 03:45:36;;;;;;;1999.90;999.90;;;15.70;99.90;;;;;;5015527;28;20041;-69
2023/07/26 03:48:02;;;;;;;1999.90;999.90;;;15.70;99.90;;;;;;5015312;28;20418;-75
2023/07/26 03:50:28;;;;;;;1999.90;999.90;;;15.80;99.90;;;;;;5015646;28;20095;-76
2023/07/26 03:52:54;;;;;;;1999.90;999.90;;;15.80;99.90;;;;;;5033192;28;20480;-76
2023/07/26 03:55:19;;;;;;;1999.90;999.90;;;15.80;99.90;;;;;;5015533;28;20021;-69
2023/07/26 03:57:45;;;;;;;1999.90;999.90;;;15.90;99.90;;;;;;5032981;28;20091;-69
2023/07/26 04:00:11;;;;;;;1999.90;999.90;;;15.90;99.90;;;;;;5033135;28;20029;-69
2023/07/26 04:02:37;;;;;;;1999.90;999.90;;;16.00;99.90;;;;;;5033146;28;20116;-76
2023/07/26 04:05:03;;;;;;;1999.90;999.90;;;16.00;99.90;;;;;;5033161;28;20057;-70
2023/07/26 04:07:28;;;;;;;1999.90;999.90;;;16.10;99.90;;;;;;5032936;28;20029;-69
2023/07/26 04:09:54;;;;;;;1999.90;999.90;;;16.20;99.90;;;;;;5032640;28;20052;-69
2023/07/26 04:12:19;;;;;;;1999.90;999.90;;;16.20;99.90;;;;;;5014921;28;20112;-69
2023/07/26 04:14:46;;;;;;;1999.90;999.90;;;16.20;99.90;;;;;;5033046;28;20087;-76
2023/07/26 04:17:12;;;;;;;1999.90;999.90;;;16.20;99.90;;;;;;5015193;28;20476;-75
2023/07/26 04:19:37;;;;;;;1999.90;999.90;;;16.20;99.90;;;;;;5033161;28;20039;-69
2023/07/26 04:22:03;;;;;;;1999.90;999.90;;;16.20;99.90;;;;;;5032817;28;20025;-69
2023/07/26 04:24:29;;;;;;;1999.90;999.90;;;16.20;99.90;;;;;;5015033;28;20028;-69
2023/07/26 04:26:54;;;;;;;1999.90;999.90;;;16.10;99.90;;;;;;5033003;28;20029;-70
2023/07/26 04:29:20;;;;;;;1999.90;999.90;;;16.20;99.90;;;;;;5015015;28;20084;-69
2023/07/26 04:31:45;;;;;;;1999.90;999.90;;;16.20;99.90;;;;;;5033002;28;20025;-69
2023/07/26 04:34:14;;;;;;;1999.90;999.90;;;16.10;99.90;;;;;;5032597;28;20026;-69
2023/07/26 04:36:41;;;;;;;1999.90;999.90;;;16.20;99.90;;;;;;5032655;28;20021;-69
2023/07/26 04:39:06;;;;;;;1999.90;999.90;;;16.20;99.90;;;;;;5032708;28;20129;-69
2023/07/26 04:41:32;;;;;;;1999.90;999.90;;;16.20;99.90;;;;;;5032687;28;20125;-76
2023/07/26 04:43:58;;;;;;;1999.90;999.90;;;16.20;99.90;;;;;;5032613;28;20061;-69
2023/07/26 04:46:23;;;;;;;1999.90;999.90;;;16.20;99.90;;;;;;5032555;28;20030;-70
2023/07/26 04:48:49;;;;;;;1999.90;999.90;;;16.10;99.90;;;;;;5032686;28;20102;-69
2023/07/26 04:51:15;;;;;;;1999.90;999.90;;;16.10;99.90;;;;;;5014782;28;20030;-69
2023/07/26 04:53:40;;;;;;;1999.90;999.90;;;16.20;99.90;;;;;;5032506;28;20037;-76
2023/07/26 04:56:06;;;;;;;1999.90;999.90;;;16.10;99.90;;;;;;5032468;28;20017;-75
2023/07/26 04:58:32;;;;;;;1999.90;999.90;;;16.20;99.90;;;;;;5029854;28;20100;-69
2023/07/26 05:00:58;;;;;;;1999.90;999.90;;;16.20;99.90;;;;;;5032021;28;20068;-69
2023/07/26 05:03:24;;;;;;;1999.90;999.90;;;16.30;99.90;;;;;;5014620;28;20037;-69
2023/07/26 05:05:51;;;;;;;1999.90;999.90;;;16.20;99.90;;;;;;5032690;28;20033;-69
2023/07/26 05:08:17;;;;;;;1999.90;999.90;;;16.20;99.90;;;;;;5014513;28;20114;-69
2023/07/26 05:10:42;;;;;;;1999.90;999.90;;;16.30;99.90;;;;;;5032079;28;20029;-69
2023/07/26 05:13:08;;;;;;;1999.90;999.90;;;16.40;99.90;;;;;;5032128;28;20099;-69
2023/07/26 05:15:33;;;;;;;1999.90;999.90;;;16.40;99.90;;;;;;5014415;28;20029;-69
2023/07/26 05:17:59;;;;;;;1999.90;999.90;;;16.40;99.90;;;;;;5032123;28;20025;-69
2023/07/26 05:20:25;;;;;;;1999.90;999.90;;;16.50;99.90;;;;;;5032193;28;20039;-76
2023/07/26 05:22:51;;;;;;;1999.90;999.90;;;16.50;99.90;;;;;;5034360;28;20033;-69
2023/07/26 05:25:18;;;;;;;1999.90;999.90;;;16.50;99.90;;;;;;5035779;28;20514;-69
2023/07/26 05:27:43;;;;;;;1999.90;999.90;;;16.50;99.90;;;;;;5035768;28;20036;-69
2023/07/26 05:30:09;;;;;;;1999.90;999.90;;;16.40;99.90;;;;;;5036267;28;20030;-69
2023/07/26 05:32:35;;;;;;;1999.90;999.90;;;16.50;99.90;;;;;;5039020;28;20045;-69
2023/07/26 05:35:02;;;;;;;1999.90;999.90;;;16.50;99.90;;;;;;5038645;28;20018;-74
2023/07/26 05:37:29;;;;;;;1999.90;999.90;;;16.50;99.90;;;;;;5034732;28;20061;-70
2023/07/26 05:39:55;;;;;;;1999.90;999.90;;;16.60;99.90;;;;;;5034943;28;20503;-69
2023/07/26 05:42:20;;;;;;;1999.90;999.90;;;16.60;99.90;;;;;;5035308;28;20049;-69
2023/07/26 05:44:46;;;;;;;1999.90;999.90;;;16.60;99.90;;;;;;5035565;28;20040;-69
2023/07/26 05:47:13;;;;;;;1999.90;999.90;;;16.60;99.90;;;;;;5034952;28;20041;-69
2023/07/26 05:49:43;;;;;;;1999.90;999.90;;;16.70;99.90;;;;;;5035074;28;20480;-69
2023/07/26 05:52:08;;;;;;;1999.90;999.90;;;16.80;99.90;;;;;;5035354;28;20029;-69
2023/07/26 05:54:34;;;;;;;1999.90;999.90;;;16.90;99.90;;;;;;5017161;28;20030;-70
2023/07/26 05:57:00;;;;;;;1999.90;999.90;;;17.00;99.90;;;;;;5033791;28;20451;-70
2023/07/26 05:59:26;;;;;;;1999.90;999.90;;;17.00;99.90;;;;;;5032078;28;20389;-75
2023/07/26 06:01:52;;;;;;;1999.90;999.90;;;17.00;99.90;;;;;;5034631;28;20112;-70
2023/07/26 06:04:18;;;;;;;1999.90;999.90;;;17.10;99.90;;;;;;5027754;28;20112;-69
2023/07/26 06:06:44;;;;;;;1999.90;999.90;;;17.20;99.90;;;;;;5035033;28;20022;-69
2023/07/26 06:09:09;;;;;;;1999.90;999.90;;;17.20;99.90;;;;;;5034705;28;20032;-69
2023/07/26 06:11:35;;;;;;;1999.90;999.90;;;17.20;99.90;;;;;;5034719;28;20030;-75
2023/07/26 06:14:01;;;;;;;1999.90;999.90;;;17.20;99.90;;;;;;5034690;28;20025;-69
2023/07/26 06:16:27;;;;;;;1999.90;999.90;;;17.30;99.90;;;;;;5016699;28;20025;-70
2023/07/26 06:18:52;;;;;;;1999.90;999.90;;;17.30;99.90;;;;;;5017628;28;20052;-70
2023/07/26 06:21:19;;;;;;;1999.90;999.90;;;17.50;99.90;;;;;;5032729;28;20057;-69
2023/07/26 06:23:45;;;;;;;1999.90;999.90;;;17.60;99.90;;;;;;5034338;28;20025;-74
2023/07/26 06:26:11;;;;;;;1999.90;999.90;;;17.70;99.90;;;;;;5033198;28;20022;-69
2023/07/26 06:28:37;;;;;;;1999.90;999.90;;;17.70;99.90;;;;;;5032434;28;20447;-74
2023/07/26 06:31:02;;;;;;;1999.90;999.90;;;17.70;99.90;;;;;;5018843;28;20857;-70
2023/07/26 06:33:28;;;;;;;1999.90;999.90;;;17.80;99.90;;;;;;5033517;28;20415;-69
2023/07/26 06:35:54;;;;;;;1999.90;999.90;;;17.80;99.90;;;;;;5032770;28;20029;-70
2023/07/26 06:38:20;;;;;;;1999.90;999.90;;;17.80;99.90;;;;;;5013991;28;20053;-69
2023/07/26 06:40:46;;;;;;;1999.90;999.90;;;17.70;99.90;;;;;;5031839;28;20067;-69
2023/07/26 06:43:12;;;;;;;1999.90;999.90;;;17.70;99.90;;;;;;5011426;28;20052;-69
2023/07/26 06:45:37;;;;;;;1999.90;999.90;;;17.70;99.90;;;;;;5012565;28;20033;-69
2023/07/26 06:48:03;;;;;;;1999.90;999.90;;;17.70;99.90;;;;;;5012466;28;20040;-69
2023/07/26 06:50:29;;;;;;;1999.90;999.90;;;17.80;99.90;;;;;;5012627;28;20091;-70
2023/07/26 06:52:54;;;;;;;1999.90;999.90;;;17.80;99.90;;;;;;5011957;28;20034;-69
2023/07/26 06:55:20;;;;;;;1999.90;999.90;;;17.90;99.90;;;;;;5011433;28;20045;-70
2023/07/26 06:57:45;;;;;;;1999.90;999.90;;;18.00;99.90;;;;;;5012378;28;20029;-69
2023/07/26 07:00:14;;;;;;;1999.90;999.90;;;18.10;99.90;;;;;;5015821;28;20076;-70
2023/07/26 07:02:40;;;;;;;1999.90;999.90;;;18.30;99.90;;;;;;5011952;28;20489;-69
2023/07/26 07:05:06;;;;;;;1999.90;999.90;;;18.40;99.90;;;;;;5023251;28;20039;-76
2023/07/26 07:07:32;;;;;;;1999.90;999.90;;;18.40;99.90;;;;;;5018728;28;20026;-69
2023/07/26 07:09:57;;;;;;;1999.90;999.90;;;18.40;99.90;;;;;;5014032;28;20033;-70
2023/07/26 07:12:23;;;;;;;1999.90;999.90;;;18.50;99.90;;;;;;5029657;28;20029;-69
2023/07/26 07:14:49;;;;;;;1999.90;999.90;;;18.50;99.90;;;;;;5014594;28;20033;-70
2023/07/26 07:17:14;;;;;;;1999.90;999.90;;;18.50;99.90;;;;;;5018479;28;20507;-70
2023/07/26 07:19:40;;;;;;;1999.90;999.90;;;18.80;99.90;;;;;;5011945;28;20421;-77
2023/07/26 07:22:06;;;;;;;1999.90;999.90;;;19.00;99.90;;;;;;5018513;28;20030;-71
2023/07/26 07:24:34;;;;;;;1999.90;999.90;;;19.00;99.90;;;;;;5007455;28;20507;-71
2023/07/26 07:26:59;;;;;;;1999.90;999.90;;;19.00;99.90;;;;;;5024996;28;20021;-70
2023/07/26 07:29:25;;;;;;;1999.90;999.90;;;19.00;99.90;;;;;;5018999;28;20036;-77
2023/07/26 07:31:50;;;;;;;1999.90;999.90;;;19.20;99.90;;;;;;5012171;28;20026;-74
2023/07/26 07:34:16;;;;;;;1999.90;999.90;;;19.40;99.90;;;;;;5015463;28;20060;-73
2023/07/26 07:36:42;;;;;;;1999.90;999.90;;;19.40;99.90;;;;;;5019814;28;20045;-73
2023/07/26 07:39:09;;;;;;;1999.90;999.90;;;19.30;99.90;;;;;;5011617;28;20037;-74
2023/07/26 07:41:37;;;;;;;1999.90;999.90;;;19.50;99.90;;;;;;5017917;28;20026;-74
2023/07/26 07:44:02;;;;;;;1999.90;999.90;;;19.70;99.90;;;;;;5018565;28;20050;-74
2023/07/26 07:46:29;;;;;;;1999.90;999.90;;;19.60;99.90;;;;;;5026059;28;20067;-77
2023/07/26 07:48:56;;;;;;;1999.90;999.90;;;19.40;99.90;;;;;;5023981;28;20113;-74
2023/07/26 07:51:21;;;;;;;1999.90;999.90;;;19.40;99.90;;;;;;5018844;28;20128;-73
2023/07/26 07:53:48;;;;;;;1999.90;999.90;;;19.30;99.90;;;;;;5011971;28;20136;-72
2023/07/26 07:56:14;;;;;;;1999.90;999.90;;;19.20;99.90;;;;;;5017217;28;20022;-76
2023/07/26 07:58:40;;;;;;;1999.90;999.90;;;19.00;99.90;;;;;;5012371;28;20026;-75
2023/07/26 08:01:05;;;;;;;1999.90;999.90;;;18.90;99.90;;;;;;5021008;28;20287;-72
2023/07/26 08:03:31;;;;;;;1999.90;999.90;;;18.80;99.90;;;;;;5022103;28;20456;-72
2023/07/26 08:05:57;;;;;;;1999.90;999.90;;;18.90;99.90;;;;;;5018016;28;20029;-71
2023/07/26 08:08:23;;;;;;;1999.90;999.90;;;19.00;99.90;;;;;;5013686;28;20485;-77
2023/07/26 08:10:49;;;;;;;1999.90;999.90;;;19.00;99.90;;;;;;5009975;28;20069;-72
2023/07/26 08:13:15;;;;;;;1999.90;999.90;;;18.90;99.90;;;;;;5010902;28;20037;-73
2023/07/26 08:15:40;;;;;;;1999.90;999.90;;;18.80;99.90;;;;;;4993580;28;20030;-73
2023/07/26 08:18:07;;;;;;;1999.90;999.90;;;18.90;99.90;;;;;;5008196;28;20497;-72
2023/07/26 08:20:33;;;;;;;1999.90;999.90;;;19.00;99.90;;;;;;5010672;28;20018;-73
2023/07/26 08:23:00;;;;;;;1999.90;999.90;;;19.00;99.90;;;;;;5012786;28;20153;-73
2023/07/26 08:25:26;;;;;;;1999.90;999.90;;;19.00;99.90;;;;;;5011956;28;20030;-78
2023/07/26 08:27:51;;;;;;;1999.90;999.90;;;19.10;99.90;;;;;;5011309;28;20104;-73
2023/07/26 08:30:17;;;;;;;1999.90;999.90;;;19.20;99.90;;;;;;5006805;28;20030;-72
2023/07/26 08:32:43;;;;;;;1999.90;999.90;;;19.50;99.90;;;;;;4999759;28;20037;-73
2023/07/26 08:35:08;;;;;;;1999.90;999.90;;;19.60;99.90;;;;;;5015842;28;20022;-73
2023/07/26 08:37:34;;;;;;;1999.90;999.90;;;19.50;99.90;;;;;;5009791;28;20034;-77
2023/07/26 08:40:00;;;;;;;1999.90;999.90;;;19.10;99.90;;;;;;5010150;28;20060;-72
2023/07/26 08:42:26;;;;;;;1999.90;999.90;;;19.00;99.90;;;;;;5017007;28;20100;-72
2023/07/26 08:44:53;;;;;;;1999.90;999.90;;;18.60;99.90;;;;;;5033610;28;20032;-72
2023/07/26 08:47:22;;;;;;;1999.90;999.90;;;18.60;99.90;;;;;;5031416;28;20091;-71
2023/07/26 08:49:48;;;;;;;1999.90;999.90;;;18.60;99.90;;;;;;5012877;28;20045;-74
2023/07/26 08:52:16;;;;;;;1999.90;999.90;;;18.80;99.90;;;;;;5031463;28;20029;-72
2023/07/26 08:54:43;;;;;;;1999.90;999.90;;;18.90;99.90;;;;;;5038805;28;20072;-72
2023/07/26 08:57:09;;;;;;;1999.90;999.90;;;18.80;99.90;;;;;;5032068;28;20061;-72
2023/07/26 08:59:35;;;;;;;1999.90;999.90;;;18.80;99.90;;;;;;5035082;28;20044;-72
2023/07/26 09:02:03;;;;;;;1999.90;999.90;;;19.00;99.90;;;;;;5017015;28;20108;-76
2023/07/26 09:04:33;;;;;;;1999.90;999.90;;;19.20;99.90;;;;;;5016849;28;20049;-72
2023/07/26 09:07:05;;;;;;;1999.90;999.90;;;19.00;99.90;;;;;;5039118;28;20033;-72
2023/07/26 09:09:32;;;;;;;1999.90;999.90;;;19.10;99.90;;;;;;5015342;28;20136;-73
2023/07/26 09:11:59;;;;;;;1999.90;999.90;;;19.20;99.90;;;;;;5036009;28;20503;-73
2023/07/26 09:14:27;;;;;;;1999.90;999.90;;;19.50;99.90;;;;;;5033110;28;20022;-72
2023/07/26 09:16:56;;;;;;;1999.90;999.90;;;20.00;99.90;;;;;;5034342;28;20366;-73
2023/07/26 09:19:30;;;;;;;1999.90;999.90;;;20.10;99.90;;;;;;5033996;28;20033;-72
2023/07/26 09:21:58;;;;;;;1999.90;999.90;;;20.00;99.90;;;;;;5033096;28;20068;-72
2023/07/26 09:24:29;;;;;;;1999.90;999.90;;;20.10;99.90;;;;;;5035615;28;20021;-72
2023/07/26 09:27:11;;;;;;;1999.90;999.90;;;19.80;99.90;;;;;;5016714;28;20444;-77
2023/07/26 09:29:40;;;;;;;1999.90;999.90;;;20.00;99.90;;;;;;5034013;28;20526;-77
2023/07/26 09:32:06;;;;;;;1999.90;999.90;;;20.00;99.90;;;;;;5016855;28;20036;-72
2023/07/26 09:34:32;;;;;;;1999.90;999.90;;;20.00;99.90;;;;;;5018555;28;20491;-72
2023/07/26 09:36:59;;;;;;;1999.90;999.90;;;19.90;99.90;;;;;;5035949;28;20512;-72
2023/07/26 09:39:27;;;;;;;1999.90;999.90;;;19.60;99.90;;;;;;5014585;28;20040;-75
2023/07/26 09:42:04;;;;;;;1999.90;999.90;;;19.50;99.90;;;;;;5020895;28;20052;-75
2023/07/26 09:44:30;;;;;;;1999.90;999.90;;;19.50;99.90;;;;;;5031657;28;20026;-71
2023/07/26 09:46:56;;;;;;;1999.90;999.90;;;19.40;99.90;;;;;;5032106;28;20026;-71
2023/07/26 09:49:27;;;;;;;1999.90;999.90;;;19.40;99.90;;;;;;5015387;28;20488;-72
2023/07/26 09:51:54;;;;;;;1999.90;999.90;;;19.40;99.90;;;;;;5033376;28;20029;-72
2023/07/26 09:54:21;;;;;;;1999.90;999.90;;;19.60;99.90;;;;;;5032729;28;20399;-72
2023/07/26 09:56:47;;;;;;;1999.90;999.90;;;19.90;99.90;;;;;;5037510;28;20488;-72
2023/07/26 09:59:14;;;;;;;1999.90;999.90;;;20.10;99.90;;;;;;5020154;28;20052;-74
2023/07/26 10:01:42;;;;;;;1999.90;999.90;;;20.90;99.90;;;;;;5031427;28;20029;-72
2023/07/26 10:04:19;;;;;;;1999.90;999.90;;;21.70;99.90;;;;;;5032606;28;20025;-71
2023/07/26 10:06:49;;;;;;;1999.90;999.90;;;22.10;99.90;;;;;;5031082;28;20026;-72
2023/07/26 10:09:16;;;;;;;1999.90;999.90;;;22.10;99.90;;;;;;5011422;28;20119;-72
2023/07/26 10:11:43;;;;;;;1999.90;999.90;;;22.80;99.90;;;;;;5031835;28;20631;-72
2023/07/26 10:14:10;;;;;;;1999.90;999.90;;;23.10;99.90;;;;;;5031965;28;20103;-72
2023/07/26 10:16:38;;;;;;;1999.90;999.90;;;23.20;99.90;;;;;;5033007;28;20817;-72
2023/07/26 10:19:04;;;;;;;1999.90;999.90;;;23.30;99.90;;;;;;5031877;28;20103;-72
2023/07/26 10:21:31;;;;;;;1999.90;999.90;;;24.10;99.90;;;;;;5031830;28;20124;-72
2023/07/26 10:24:00;;;;;;;1999.90;999.90;;;25.00;99.90;;;;;;5034046;28;20056;-73
2023/07/26 10:26:30;;;;;;;1999.90;999.90;;;27.10;99.90;;;;;;5036922;28;20067;-73
2023/07/26 10:29:05;;;;;;;1999.90;999.90;;;28.00;99.90;;;;;;5018954;28;20033;-73
2023/07/26 10:31:31;;;;;;;1999.90;999.90;;;28.10;99.90;;;;;;5032021;28;20079;-78
2023/07/26 10:33:57;;;;;;;1999.90;999.90;;;27.40;99.90;;;;;;5035845;28;20037;-73
2023/07/26 10:36:33;;;;;;;1999.90;999.90;;;28.20;99.90;;;;;;5024490;28;20145;-73
2023/07/26 10:39:06;;;;;;;1999.90;999.90;;;27.30;99.90;;;;;;5030982;28;20139;-73
2023/07/26 10:41:34;;;;;;;1999.90;999.90;;;28.00;99.90;;;;;;5032442;28;20021;-73
2023/07/26 10:44:08;;;;;;;1999.90;999.90;;;28.30;99.90;;;;;;5007987;28;20053;-74
2023/07/26 10:46:46;;;;;;;1999.90;999.90;;;27.40;99.90;;;;;;5010030;28;20032;-73
2023/07/26 10:49:32;;;;;;;1999.90;999.90;;;27.00;99.90;;;;;;5033478;28;20064;-72
2023/07/26 10:52:02;;;;;;;1999.90;999.90;;;25.90;99.90;;;;;;5012910;28;20026;-73
2023/07/26 10:54:48;;;;;;;1999.90;999.90;;;27.20;99.90;;;;;;5011770;28;20121;-73
2023/07/26 10:57:26;;;;;;;1999.90;999.90;;;29.20;99.90;;;;;;5024546;28;20036;-79
2023/07/26 10:59:54;;;;;;;1999.90;999.90;;;27.80;99.90;;;;;;5029483;28;20029;-78
2023/07/26 11:02:45;;;;;;;1999.90;999.90;;;29.10;99.90;;;;;;5011304;28;20061;-73
2023/07/26 11:05:17;;;;;;;1999.90;999.90;;;29.30;99.90;;;;;;5012983;28;20405;-73
2023/07/26 11:08:06;;;;;;;1999.90;999.90;;;28.50;99.90;;;;;;5030361;28;20029;-73
2023/07/26 11:10:48;;;;;;;1999.90;999.90;;;29.70;99.90;;;;;;5013150;28;20025;-73
2023/07/26 11:13:28;;;;;;;1999.90;999.90;;;30.20;99.90;;;;;;5025194;28;20075;-73
2023/07/26 11:15:54;;;;;;;1999.90;999.90;;;30.20;99.90;;;;;;5014374;28;20033;-73
2023/07/26 11:18:20;;;;;;;1999.90;999.90;;;29.80;99.90;;;;;;5032171;28;20025;-73
2023/07/26 11:20:47;;;;;;;1999.90;999.90;;;29.60;99.90;;;;;;5012037;28;20042;-73
2023/07/26 11:23:27;;;;;;;1999.90;999.90;;;29.60;99.90;;;;;;5031943;28;20021;-74
2023/07/26 11:25:58;;;;;;;1999.90;999.90;;;29.60;99.90;;;;;;5030866;28;20120;-73
2023/07/26 11:28:32;;;;;;;1999.90;999.90;;;29.50;99.90;;;;;;5030875;28;20049;-73
2023/07/26 11:30:59;;;;;;;1999.90;999.90;;;29.30;99.90;;;;;;5013199;28;20065;-73
2023/07/26 11:33:35;;;;;;;1999.90;999.90;;;29.10;99.90;;;;;;5030421;28;20033;-73
2023/07/26 11:36:04;;;;;;;1999.90;999.90;;;29.50;99.90;;;;;;5030651;28;20067;-73
2023/07/26 11:38:30;;;;;;;1999.90;999.90;;;29.40;99.90;;;;;;5029629;28;20021;-73
2023/07/26 11:40:56;;;;;;;1999.90;999.90;;;28.60;99.90;;;;;;5012002;28;20052;-73
2023/07/26 11:43:26;;;;;;;1999.90;999.90;;;28.40;99.90;;;;;;5027060;28;20504;-72
2023/07/26 11:45:52;;;;;;;1999.90;999.90;;;28.60;99.90;;;;;;5015241;28;20116;-73
2023/07/26 11:48:19;;;;;;;1999.90;999.90;;;28.20;99.90;;;;;;5030452;28;20033;-72
2023/07/26 11:50:45;;;;;;;1999.90;999.90;;;28.40;99.90;;;;;;5030412;28;20432;-73
2023/07/26 11:53:13;;;;;;;1999.90;999.90;;;29.50;99.90;;;;;;5031989;28;20514;-73
2023/07/26 11:55:40;;;;;;;1999.90;999.90;;;29.70;99.90;;;;;;5028153;28;20136;-74
2023/07/26 11:58:08;;;;;;;1999.90;999.90;;;27.60;99.90;;;;;;5030861;28;20021;-73